Terminal Aerodrome Forecast
Issued by NWS Cleveland, OH

Home | Current Version | Previous Version | Graphics & Text | Print | Product List | Glossary On
Versions: 1 2 3 4 5 6 7 8 9 10 11 12 13 14 15 16 17 18 19 20 21 22 23 24 25 26
000
FTUS41 KCLE 260847 AAC
TAFCLE
TAF AMD
KCLE 260847Z 2609/2712 17012KT P6SM OVC250
     FM261200 20012KT P6SM VCSH SCT035 OVC080
     FM261500 23012KT 5SM -SHRA OVC025
     FM262100 27014G24KT P6SM SCT025 OVC060
     FM270000 26010KT P6SM SCT060=

USA.gov is the U.S. government's official web portal to all federal, state and local government web resources and services.